New Iberia, LA (70562)

4:16 AM CST on February 01, 2015 (GMT -0600)
Belair | Change Station
CLOSE
Current Station
Personal Weather Station
Location: New Iberia, LA
Elevation: 18 ft
Nearby Weather Stations

Elev 18 ft 29.99 °N, 91.77 °W | Updated 6 seconds ago

Overcast
Overcast
62.4 °F
Feels Like 62.4 °F
N
1.0
Wind Variable Wind from SSE
Gusts 5.8 mph

Today
High -- | Low -- °F
--% Chance of Precip.
Yesterday
High -- | Low -- °F
Precip. -- in
6:57 AM 5:44 PM
Waxing Gibbous, 94% visible
Pressure 29.95 in
Visibility 10.0 miles
Clouds Few 3500 ft
Scattered Clouds 9000 ft
Scattered Clouds 12000 ft
Dew Point 30 °F
Humidity 30%
Rainfall 0.00 in
Snow Depth Not available.
UV 0 out of 12
Pollen 7.60 out of 12
Air Quality Not available.
Flu Activity Not available.
METAR KARA 010953Z AUTO 14016KT 10SM FEW035 SCT090 SCT120 16/13 A2995 RMK AO2 RAB08E24 PRESFR SLP140 P0000 T01560133

More Conditions Fewer Conditions

Pressure 29.95 in
Visibility 10.0 miles
Clouds Few 3500 ft
Scattered Clouds 9000 ft
Scattered Clouds 12000 ft
Dew Point 30 °F
Humidity 30%
Rainfall 0.00 in
Snow Depth Not available.
UV 0 out of 12
Pollen 7.60 out of 12
Air Quality Not available.
Flu Activity Not available.
METAR KARA 010953Z AUTO 14016KT 10SM FEW035 SCT090 SCT120 16/13 A2995 RMK AO2 RAB08E24 PRESFR SLP140 P0000 T01560133

More Conditions Fewer Conditions

10-Day Weather Forecast

Almanac

Astronomy

Feb. 01, 2015 Rise Set
Actual Time
Civil Twilight
Nautical Twilight
Astronomical Twilight
Moon
Length of Visible Light
Length of Day
Tomorrow will be .
, % of the Moon is Illuminated

Today's Extremes

State Highs State Lows

Community

WunderPhotos

Upload Photos

1,792,330 photos uploaded!

WunderBlogs® & News

Nearby

Air Quality

  Air Quality AQ Index Pollutant
Not available.

Snow Depth

Station Depth Elevation

Earthquake Activity

City Distance Mag. Time & Date
Minimum magnitude displayed is 2.5.

Coastal Water Temperatures

Place Temperature

Nearby Weather Stations